WIIIWADD

Guest
Details From WIII - Jakarta Sukarno-hatta Intl
To WADD - Denpasar Ngurah Rai Intl
Flight Number -
Tags Generated
Created
Modified
Stats Distance 532 nm / 986 km
Max Altitude 0 ft / 0 m
Waypoints 4
Social Downloads 8
Likes 0
Share VATSIM

Download

Looking for another format? Having issues loading an existing format? Contact us
Advertisement - Login to hide

Notes

Generated

Route

WIII SLO BLI WADD

ID Type Via Altitude Latitude Longitude Leg Dist Tot Dist Heading (true) Name
O WIII APT - 0 ft / 0 m -6.12106˚ 106.63876˚ - 0 nm - -
SLO VOR - 0 ft / 0 m -7.50772˚ 110.79441˚ 261 nm 261 nm 109° / 108° SOLO VOR-DME
BLI VOR - 0 ft / 0 m -8.75058˚ 115.16331˚ 270 nm 531 nm 106° / 106° BALI VOR-DME
O WADD APT - 0 ft / 0 m -8.74871˚ 115.15363˚ 0 nm 532 nm 281° / 281° -

Altitude Profile

Advertisement - Login to hide

Weather


0- 5 10 15 20 25 30 35+ Temperature / ° C

Clouds and Precipitation
Forecast for 2017-12-12 12:00 UTC. Updated an hour ago

Ground ~20,000 ft ~40,000 ft Winds

WIII

Details ICAO WIII (CGK)
Name Jakarta Sukarno-Hatta Intl
Region Indonesia
Timezone Asia/Jakarta (UTC+7.0)
Stats Elevation 34 ft / 10 m (AMSL)
Location -6.125743° 106.656405°
Runways 2
Magnetic Variation 0.630° E

METAR

WIII 120830Z 02003KT 5000 TSRA FEW018CB BKN020 25/23 Q1009 NOSIG RMK CB TO N AND NE

Decode

TAF

TAF AMD WIII 120656Z 1206/1312 27010KT 9999 SCT020 TEMPO 1206/1210 4000 TSRA FEW018CB BKN020 BECMG 1213/1215 23007KT 6000

Decode

Departure Runways

ID Width Length Bearing (true) Bearing (mag) Surface Threshold Offset Overrun Length
07L 197 ft / 60 m 11,823 ft / 3,604 m 68.13° 67.50° Concrete 0 ft / 0 m 200 ft / 61 m
07R 197 ft / 60 m 12,024 ft / 3,665 m 68.12° 67.49° Concrete 0 ft / 0 m 200 ft / 61 m
25L 197 ft / 60 m 12,024 ft / 3,665 m 248.12° 247.49° Concrete 0 ft / 0 m 200 ft / 61 m
25R 197 ft / 60 m 11,823 ft / 3,604 m 248.12° 247.49° Concrete 0 ft / 0 m 200 ft / 61 m

WADD

Details ICAO WADD (DPS)
Name Denpasar Ngurah Rai Intl
Region Indonesia
Timezone Asia/Makassar (UTC+8.0)
Stats Elevation 14 ft / 4 m (AMSL)
Location -8.748169° 115.167174°
Runways 1
Magnetic Variation 1.056° E

METAR

WADD 120800Z 27008KT 9999 FEW016CB SCT016 29/25 Q1007 NOSIG RMK CB TO NW N

Decode

TAF

TAF TAF WADD 120500Z 1206/1306 27010KT 9999 SCT016 BECMG 1212/1214 VRB05KT TEMPO 1218/1222 5000 TSRA FEW014CB BKN015

Decode

Destination Runways

ID Width Length Bearing (true) Bearing (mag) Surface Threshold Offset Overrun Length
09 148 ft / 45 m 9,779 ft / 2,981 m 87.71° 86.65° Asphalt 121 ft / 37 m 75 ft / 23 m
27 148 ft / 45 m 9,779 ft / 2,981 m 267.70° 266.64° Asphalt 0 ft / 0 m 197 ft / 60 m

Approach Navaids

Runway Type Ident Frequency Range Bearing (true) Bearing (mag) Slope Elevation
27 Localiser IDPS 110.30 MHz 18 nm / 33 km 267.70° 266.65° - 10 ft / 3 m (AMSL)
27 Glidescope IDPS 110.30 MHz 10 nm / 19 km 267.70° 266.65° 3.00° 12 ft / 4 m (AMSL)
27 DME IDPS 110.30 MHz 18 nm / 33 km - - - 14 ft / 4 m (AMSL)

Popular Alternatives